Аэропорт: Чебоксары. Чебоксары

ICAO: UWKS

METAR:
2019-07-23 18:30:00
UWKS 231830Z 17002MPS CAVOK 16/12 Q1016 R06/010060 NOSIG RMK QFE746
METAR:
2019-07-23 16:46:00
TAF UWKS 231646Z 2318/2403 14003G08MPS 9999 BKN015CB TEMPO 2320/2403 3500 -SHRA SCT007 BKN011CB